• Join FlightAware (Why Join?)
  • Login
  • US Flag 
07:16AM EST


 

Airport Tracker/Info


-or-


 

Live Flight TrackerFlight Track Log ✈ C-GTEV ✈ 19-Nov-2013 ✈ CZBA - KPWK

Flight Track Log - Related Links

Times and Time Zones

All times are in EST time to prevent confusion due to time zone crossing. See the C-GTEV flight status page for this flight to view local times or setup timezone preferences in your user account.

Time Position Orientation Groundspeed Altitude Reporting Facility
EST Latitude Longitude Course Direction KTS MPH feet Rate Location/Type
06:36AM 43.4333 -79.9167 235° Southwest 160 184 2,200  Level Toronto Center
06:37AM 43.4167 -79.9500 235° Southwest 160 184 4,000 1,680 Climbing Toronto Center
06:38AM 43.3667 -80.0000 216° Southwest 170 196 5,600 1,620 Climbing Toronto Center
06:39AM 43.3500 -80.0500 245° Southwest 160 184 7,300 1,380 Climbing Toronto Center
06:40AM 43.3333 -80.0833 236° Southwest 160 184 8,400 1,320 Climbing Toronto Center
06:41AM 43.3333 -80.1667 270° West 170 196 10,000 1,320 Climbing Toronto Center
06:42AM 43.3333 -80.2333 270° West 170 196 11,100 1,080 Climbing Toronto Center
06:43AM 43.3167 -80.3000 251° West 180 207 12,200 1,080 Climbing Toronto Center
06:44AM 43.3167 -80.3667 270° West 190 219 13,300 1,200 Climbing Toronto Center
06:45AM 43.3000 -80.4333 251° West 180 207 14,600 1,200 Climbing Toronto Center
06:46AM 43.3000 -80.5000 270° West 170 196 15,700 900 Climbing Toronto Center
06:47AM 43.3000 -80.5500 270° West 160 184 16,500 780 Climbing Toronto Center
06:48AM 43.2833 -80.6167 251° West 160 184 17,300 600 Climbing Toronto Center
06:49AM 43.2833 -80.6667 270° West 150 173 17,800 600 Climbing Toronto Center
06:50AM 43.2833 -80.7333 270° West 150 173 18,500 660 Climbing Toronto Center
06:51AM 43.2667 -80.7833 245° Southwest 150 173 19,200 600 Climbing Toronto Center
06:52AM 43.2500 -80.8500 251° West 140 161 19,800 420 Climbing Toronto Center
06:53AM 43.2500 -80.9000 270° West 150 173 20,100 60 Climbing Toronto Center
06:54AM 43.2333 -80.9667 251° West 170 196 20,000 -60 Descending Toronto Center
06:55AM 43.2333 -81.0333 270° West 180 207 20,000  Level Toronto Center
06:56AM 43.2167 -81.1000 251° West 180 207 20,000  Level Toronto Center
06:57AM 43.2167 -81.1667 270° West 180 207 20,100  Climbing Toronto Center
06:58AM 43.2167 -81.2333 270° West 180 207 20,000 -60 Descending Toronto Center
06:59AM 43.2000 -81.3000 251° West 190 219 20,000  Level Toronto Center
07:00AM 43.2000 -81.3667 270° West 190 219 20,000  Level Toronto Center
07:01AM 43.1833 -81.4333 251° West 190 219 20,100  Climbing Toronto Center
07:02AM 43.1833 -81.5000 270° West 190 219 20,100 -60 Level Toronto Center
07:03AM 43.1667 -81.5833 255° West 190 219 20,000 -60 Descending Toronto Center
07:04AM 43.1667 -81.6667 270° West 190 219 20,000  Level Toronto Center
07:05AM 43.1500 -81.7333 251° West 190 219 20,000  Level Toronto Center
07:06AM 43.1500 -81.8000 270° West 190 219 20,100  Climbing Toronto Center
07:07AM 43.1500 -81.8667 270° West 190 219 20,000 -60 Descending Toronto Center
07:08AM 43.1167 -81.9333 236° Southwest 190 219 20,000  Level Toronto Center
07:09AM 43.1167 -82.0167 270° West 190 219 20,000  Level Toronto Center
07:10AM 43.1000 -82.0833 251° West 190 219 20,000  Level Toronto Center
07:11AM 43.1000 -82.1500 270° West 190 219 20,000  Level Toronto Center
07:12AM 43.0833 -82.2167 251° West 190 219 20,000  Level Toronto Center
07:13AM 43.0833 -82.2833 270° West 190 219 20,000  Level Toronto Center
07:14AM 43.0833 -82.3500 270° West 190 219 20,100  Climbing Toronto Center
07:15AM 43.0667 -82.4167 251° West 180 207 20,100 -60 Level Toronto Center
07:16AM 43.0667 -82.4833 270° West 190 219 20,000 -60 Descending Toronto Center
07:17AM 43.0500 -82.5500 251° West 190 219 20,000  Level Toronto Center
07:18AM 43.0333 -82.6500 257° West 190 219 20,000  Level Toronto Center
07:18AM 43.0456 -82.6697 310° West 184 212 20,000  Level Cleveland Center
07:19AM 43.0339 -82.7533 259° West 188 216 20,000  Level Cleveland Center
07:20AM 43.0228 -82.8186 257° West 181 208 20,000  Level Cleveland Center
07:21AM 43.0131 -82.8864 259° West 183 211 20,000  Level Cleveland Center
07:22AM 43.0031 -82.9525 258° West 180 207 20,000  Level Cleveland Center
07:24AM 42.9928 -83.0194 258° West 182 209 20,100  Climbing Cleveland Center
07:25AM 42.9814 -83.0858 257° West 181 208 20,000 -60 Descending Cleveland Center
07:26AM 42.9714 -83.1544 259° West 184 212 20,000  Level Cleveland Center
07:27AM 42.9581 -83.2344 257° West 182 209 20,000  Level Cleveland Center
07:28AM 42.9483 -83.3011 259° West 181 208 20,000  Level Cleveland Center
07:29AM 42.9369 -83.3686 257° West 182 209 20,000  Level Cleveland Center
07:30AM 42.9264 -83.4369 258° West 185 213 20,000  Level Cleveland Center
07:31AM 42.9156 -83.5067 258° West 189 217 20,100  Climbing Cleveland Center
07:32AM 42.9022 -83.5822 256° West 192 221 20,000 -60 Descending Cleveland Center
07:33AM 42.8922 -83.6483 258° West 189 217 20,000  Level Cleveland Center
07:34AM 42.8814 -83.7175 258° West 188 216 20,000  Level Cleveland Center
07:35AM 42.8681 -83.8028 258° West 191 220 20,100  Climbing Cleveland Center
07:36AM 42.8553 -83.8731 256° West 190 219 20,000 -60 Descending Cleveland Center
07:37AM 42.8456 -83.9431 259° West 189 217 20,000  Level Cleveland Center
07:38AM 42.8325 -84.0153 256° West 191 220 20,000  Level Cleveland Center
07:39AM 42.8200 -84.0867 257° West 194 223 20,100  Climbing Cleveland Center
07:40AM 42.8086 -84.1561 257° West 190 219 20,000 -60 Descending Cleveland Center
07:41AM 42.7978 -84.2264 258° West 190 219 20,000  Level Cleveland Center
07:42AM 42.7858 -84.2967 257° West 191 220 20,000  Level Cleveland Center
07:43AM 42.7739 -84.3672 257° West 191 220 20,000  Level Cleveland Center
07:44AM 42.7642 -84.4233 257° West 191 220 20,000  Level Chicago Center
07:45AM 42.7525 -84.4942 257° West 193 222 20,000  Level Chicago Center
07:46AM 42.7406 -84.5650 257° West 193 222 20,100  Climbing Chicago Center
07:47AM 42.7281 -84.6356 256° West 193 222 20,000 -60 Descending Chicago Center
07:48AM 42.7133 -84.7206 257° West 193 222 20,000  Level Chicago Center
07:49AM 42.7014 -84.7928 257° West 196 226 20,000  Level Chicago Center
07:50AM 42.6886 -84.8639 256° West 195 224 20,000  Level Chicago Center
07:51AM 42.6769 -84.9342 257° West 193 222 20,000  Level Chicago Center
07:52AM 42.6636 -85.0061 256° West 196 226 20,100  Climbing Chicago Center
07:53AM 42.6514 -85.0775 257° West 196 226 20,000 -60 Descending Chicago Center
07:54AM 42.6394 -85.1486 257° West 194 223 20,000  Level Chicago Center
07:55AM 42.6236 -85.2356 256° West 196 226 20,100  Climbing Chicago Center
07:56AM 42.6111 -85.3044 256° West 191 220 20,000 -60 Descending Chicago Center
07:57AM 42.5983 -85.3781 257° West 198 228 20,000  Level Chicago Center
07:58AM 42.5853 -85.4494 256° West 197 227 20,000  Level Chicago Center
07:59AM 42.5728 -85.5208 257° West 195 224 20,000  Level Chicago Center
08:00AM 42.5594 -85.5936 256° West 199 229 20,100  Climbing Chicago Center
08:01AM 42.5469 -85.6661 257° West 198 228 20,000 -60 Descending Chicago Center
08:02AM 42.5331 -85.7375 255° West 197 227 20,000  Level Chicago Center
08:03AM 42.5172 -85.8225 256° West 194 223 20,000  Level Chicago Center
08:04AM 42.5050 -85.8942 257° West 194 223 20,000  Level Chicago Center
08:05AM 42.4906 -85.9647 255° West 194 223 20,100 -120 Climbing Chicago Center
08:06AM 42.4781 -86.0369 257° West 196 226 19,800 -660 Descending Chicago Center
08:07AM 42.4633 -86.1153 256° West 211 243 18,800 -900 Descending Chicago Center
08:08AM 42.4619 -86.2019 269° West 227 261 18,000 -960 Descending Chicago Center
08:09AM 42.4556 -86.2894 264° West 232 267 16,900 -1,260 Descending Chicago Center
08:11AM 42.4500 -86.3983 266° West 240 276 15,500 -1,320 Descending Chicago Center
08:12AM 42.4444 -86.4911 265° West 246 283 14,200 -1,320 Descending Chicago Center
08:13AM 42.4406 -86.5864 267° West 253 291 12,800 -1,380 Descending Chicago Center
08:14AM 42.4347 -86.6767 265° West 241 277 11,400 -1,380 Descending Chicago Center
08:15AM 42.4300 -86.7758 266° West 259 298 10,000 -1,320 Descending Chicago Center
08:16AM 42.4250 -86.8706 266° West 256 295 8,700 -1,620 Descending Chicago Center
08:17AM 42.4183 -86.9808 265° West 248 285 6,700 -1,560 Descending Chicago Center
08:18AM 42.4117 -87.0692 264° West 239 275 5,500 -1,260 Descending Chicago Center
08:19AM 42.4075 -87.1544 266° West 229 264 4,200 -1,260 Descending Chicago Center
08:20AM 42.4039 -87.2367 267° West 226 260 3,000 -600 Descending Chicago Center
08:21AM 42.3986 -87.3197 265° West 217 250 3,000  Level Chicago Center
08:22AM 42.3667 -87.4333 249° West 218 251 3,000  Level Chicago TRACON
08:23AM 42.3667 -87.5167 270° West 212 244 3,000  Level Chicago TRACON
08:24AM 42.3500 -87.6000 255° West 213 245 3,000  Level Chicago TRACON
08:25AM 42.3500 -87.6667 270° West 194 223 3,000  Level Chicago TRACON
08:26AM 42.3500 -87.7500 270° West 184 212 3,000  Level Chicago TRACON
08:27AM 42.3333 -87.8167 251° West 184 212 3,000 -120 Level Chicago TRACON
08:28AM 42.3333 -87.8833 270° West 184 212 2,800 -300 Descending Chicago TRACON
08:29AM 42.3167 -87.9500 251° West 181 208 2,400 -240 Descending Chicago TRACON
08:30AM 42.2833 -88.0000 228° Southwest 176 203 2,400  Level Chicago TRACON
08:31AM 42.2500 -87.9667 143° Southeast 164 189 2,400  Level Chicago TRACON
08:32AM 42.2283 -87.9628 172° South 168 193 2,400 -120 Level Chicago Center
08:33AM 42.1833 -87.9403 160° South 165 190 2,300 -120 Descending Chicago Center
08:36AM 42.1329 -87.9110 166° South  Level FlightAware Approximate